Terminal Aerodrome Forecast
Issued by NWS

Home | Current Version | Previous Version | Text Only | Print | Product List | Glossary On
Versions: 1 2 3 4 5 6 7 8 9 10 11 12 13 14 15 16 17
000
FTUS44 KMAF 172300
TAFCNM
TAF
KCNM 172327Z 1800/1824 24021G30KT P6SM SCT250
     FM180200 26007KT P6SM SKC
     FM181700 25017G25KT P6SM SKC=

USA.gov is the U.S. government's official web portal to all federal, state and local government web resources and services.